William Penn Annex West, Pennsylvania
Current Conditions -  °F | °C
As of 10:54 PM on Thursday 18 Dec 2014 (Local Time) from KPHL Reporting Station
Overcast Overcast  
Wind Chill: 31°   Ceiling: 3800
Heat Index: 38°   Visibility: 10mi
Dew Point: 25°   Wind: 9mph
Humidity: 60%   Direction: 290°WNW
Pressure: 30.05"   Gusts: NA
Location:  39.9516°N, 75.1581°W
Report Text: KPHL 190354Z 29008KT 10SM OVC038 03/M04 A3005 RMK AO2 SLP174 T00331039
Loading
Personal Weather Stations






























Interactive Weather Map New forecast layout! Learn more

10-Day Weather Forecast

Advertisements
Track Severe Weather on mobile